createdAt,value
2023-06-09T00:03:48.599Z,81
2023-06-09T00:08:54.631Z,82.5
2023-06-09T00:14:00.753Z,83
2023-06-09T00:19:06.816Z,82.5
2023-06-09T00:24:12.966Z,82
2023-06-09T00:29:19.025Z,82
2023-06-09T00:34:25.264Z,83
2023-06-09T00:39:31.257Z,81.5
2023-06-09T00:44:37.312Z,82.5
2023-06-09T00:49:43.400Z,83
2023-06-09T00:54:49.509Z,83
2023-06-09T00:59:55.603Z,82.5
2023-06-09T01:05:01.754Z,82
2023-06-09T01:10:07.916Z,81.5
2023-06-09T01:15:13.925Z,81.5
2023-06-09T01:20:31.303Z,81.5
2023-06-09T01:25:37.384Z,82.5
2023-06-09T01:30:43.369Z,81
2023-06-09T01:35:49.496Z,81.5
2023-06-09T01:41:01.173Z,82.5
2023-06-09T01:46:07.331Z,82
2023-06-09T01:51:13.691Z,82
2023-06-09T01:56:19.486Z,82.5
2023-06-09T02:01:25.650Z,81.5
2023-06-09T02:06:31.678Z,81
2023-06-09T02:11:37.774Z,80.5
2023-06-09T02:16:43.889Z,81
2023-06-09T02:21:49.942Z,81
2023-06-09T02:26:56.054Z,82
2023-06-09T02:32:02.175Z,82
2023-06-09T02:37:08.225Z,82
2023-06-09T02:42:14.321Z,83
2023-06-09T02:47:20.486Z,82.5
2023-06-09T02:52:32.154Z,81.5
2023-06-09T02:57:38.245Z,81
2023-06-09T03:02:44.362Z,81
2023-06-09T03:07:50.421Z,81.5
2023-06-09T03:12:56.791Z,83
2023-06-09T03:18:02.656Z,83
2023-06-09T03:23:08.718Z,82
2023-06-09T03:28:14.826Z,82.5
2023-06-09T03:33:20.936Z,83
2023-06-09T03:38:27.010Z,82
2023-06-09T03:43:33.192Z,82
2023-06-09T03:48:39.315Z,82
2023-06-09T03:53:45.266Z,82.5
2023-06-09T03:58:51.375Z,81.5
2023-06-09T04:03:57.494Z,81
2023-06-09T04:09:03.562Z,80.5
2023-06-09T04:14:09.695Z,81
2023-06-09T04:19:15.765Z,81
2023-06-09T04:24:21.936Z,81
2023-06-09T04:29:39.183Z,81
2023-06-09T04:34:45.267Z,70
2023-06-09T04:39:51.339Z,56
2023-06-09T04:44:57.469Z,55
2023-06-09T04:50:03.664Z,48
2023-06-09T04:55:09.786Z,45.5
2023-06-09T05:00:15.755Z,42
2023-06-09T05:05:21.890Z,46.5
2023-06-09T05:10:27.929Z,43
2023-06-09T05:15:34.011Z,42.5
2023-06-09T05:20:40.141Z,41
2023-06-09T05:25:46.228Z,44
2023-06-09T05:30:52.301Z,45
2023-06-09T05:35:58.532Z,44.5
2023-06-09T05:41:04.526Z,45.5
2023-06-09T05:46:10.706Z,43
2023-06-09T05:51:17.072Z,43
2023-06-09T05:56:22.778Z,42.5
2023-06-09T06:01:28.952Z,40.5
2023-06-09T06:06:40.617Z,42
2023-06-09T06:11:46.712Z,40
2023-06-09T06:16:53.102Z,40
2023-06-09T06:21:58.899Z,40.5
2023-06-09T06:27:05.033Z,38.5
2023-06-09T06:32:11.100Z,43
2023-06-09T06:37:17.207Z,49
2023-06-09T06:42:23.269Z,41
2023-06-09T06:47:29.434Z,40
2023-06-09T06:52:35.658Z,39
2023-06-09T06:57:41.636Z,40
2023-06-09T07:02:48.065Z,37
2023-06-09T07:07:53.913Z,37
2023-06-09T07:12:59.862Z,40
2023-06-09T07:18:05.995Z,45
2023-06-09T07:23:12.075Z,44.5
2023-06-09T07:28:18.252Z,44
2023-06-09T07:33:24.272Z,47
2023-06-09T07:38:30.349Z,48.5
2023-06-09T07:43:47.728Z,56
2023-06-09T07:48:53.763Z,49.5
2023-06-09T07:53:59.986Z,44.5
2023-06-09T07:59:06.076Z,44.5
2023-06-09T08:04:12.136Z,45
2023-06-09T08:09:18.166Z,44
2023-06-09T08:14:24.241Z,46
2023-06-09T08:19:30.343Z,47
2023-06-09T08:24:36.559Z,52
2023-06-09T08:29:42.608Z,54.5
2023-06-09T08:34:48.648Z,59
2023-06-09T08:39:54.745Z,63
2023-06-09T08:45:02.208Z,63
2023-06-09T08:50:07.097Z,55.5
2023-06-09T08:55:14.044Z,54
2023-06-09T09:00:19.177Z,56
2023-06-09T09:05:25.239Z,62
2023-06-09T09:10:31.316Z,56.5
2023-06-09T09:15:37.442Z,59
2023-06-09T09:20:49.191Z,56
2023-06-09T09:25:55.322Z,62
2023-06-09T09:31:01.684Z,60
2023-06-09T09:36:07.467Z,59.5
2023-06-09T09:41:13.720Z,50.5
2023-06-09T09:46:19.659Z,55.5
2023-06-09T09:51:25.682Z,61
2023-06-09T09:56:31.834Z,55.5
2023-06-09T10:01:38.110Z,53.5
2023-06-09T10:06:43.996Z,50.5
2023-06-09T10:11:50.090Z,54.5
2023-06-09T10:16:56.203Z,59
2023-06-09T10:22:02.298Z,56
2023-06-09T10:27:08.376Z,54
2023-06-09T10:32:14.747Z,54.5
2023-06-09T10:37:20.593Z,56.5
2023-06-09T10:42:26.905Z,54
2023-06-09T10:47:32.809Z,52.5
2023-06-09T10:52:38.863Z,49.5
2023-06-09T10:57:50.661Z,55
2023-06-09T11:02:56.755Z,52.5
2023-06-09T11:08:02.804Z,49
2023-06-09T11:13:08.882Z,51.5
2023-06-09T11:18:15.195Z,51
2023-06-09T11:23:21.057Z,54
2023-06-09T11:28:27.186Z,50.5
2023-06-09T11:33:33.430Z,51
2023-06-09T11:38:39.367Z,43.5
2023-06-09T11:43:45.453Z,47.5
2023-06-09T11:48:51.561Z,48
2023-06-09T11:53:57.617Z,47.5
2023-06-09T11:59:03.831Z,46
2023-06-09T12:04:09.953Z,47
2023-06-09T12:09:15.909Z,48.5
2023-06-09T12:14:22.029Z,46
2023-06-09T12:19:28.116Z,45
2023-06-09T12:24:34.264Z,44.5
2023-06-09T12:29:40.322Z,47
2023-06-09T12:34:57.751Z,49.5
2023-06-09T12:40:03.975Z,49.5
2023-06-09T12:45:09.826Z,52.5
2023-06-09T12:50:15.954Z,52
2023-06-09T12:55:22.023Z,57
2023-06-09T13:00:28.424Z,54
2023-06-09T13:05:34.184Z,51.5
2023-06-09T13:10:40.284Z,47
2023-06-09T13:15:46.392Z,51
2023-06-09T13:20:52.470Z,54.5
2023-06-09T13:25:58.591Z,49.5
2023-06-09T13:31:04.839Z,55
2023-06-09T13:36:10.766Z,54.5
2023-06-09T13:41:16.872Z,55
2023-06-09T13:46:22.953Z,55
2023-06-09T13:51:29.060Z,56.5
2023-06-09T13:56:35.148Z,57
2023-06-09T14:01:41.302Z,51.5
2023-06-09T14:06:47.344Z,61
2023-06-09T14:12:00.422Z,57.5
2023-06-09T14:17:05.208Z,57.5
2023-06-09T14:22:11.296Z,52.5
2023-06-09T14:27:17.366Z,47.5
2023-06-09T14:32:23.495Z,48.5
2023-06-09T14:37:29.560Z,57.5
2023-06-09T14:42:35.673Z,59.5
2023-06-09T14:47:41.920Z,57
2023-06-09T14:52:47.884Z,56.5
2023-06-09T14:57:54.078Z,59.5
2023-06-09T15:03:00.206Z,64.5
2023-06-09T15:08:06.156Z,60.5
2023-06-09T15:13:12.287Z,60
2023-06-09T15:18:18.348Z,56.5
2023-06-09T15:23:24.403Z,57.5
2023-06-09T15:28:30.516Z,58
2023-06-09T15:33:36.779Z,63.5
2023-06-09T15:38:42.705Z,63
2023-06-09T15:43:48.830Z,63.5
2023-06-09T15:49:00.650Z,65.5
2023-06-09T15:54:06.726Z,67
2023-06-09T15:59:12.720Z,61.5
2023-06-09T16:04:18.886Z,65
2023-06-09T16:09:24.906Z,67.5
2023-06-09T16:14:31.265Z,71
2023-06-09T16:19:37.111Z,74.5
2023-06-09T16:24:43.250Z,72.5
2023-06-09T16:29:49.867Z,73
2023-06-09T16:34:55.379Z,74
2023-06-09T16:40:01.531Z,73.5
2023-06-09T16:45:08.129Z,75
2023-06-09T16:50:13.899Z,72
2023-06-09T16:55:19.762Z,71.5
2023-06-09T17:00:25.866Z,71
2023-06-09T17:05:31.961Z,71
2023-06-09T17:10:38.093Z,70.5
2023-06-09T17:15:44.245Z,68.5
2023-06-09T17:20:50.276Z,70
2023-06-09T17:26:02.173Z,74
2023-06-09T17:31:08.403Z,75
2023-06-09T17:36:19.849Z,73
2023-06-09T17:41:26.115Z,76.5
2023-06-09T17:46:31.994Z,75
2023-06-09T17:51:38.085Z,77
2023-06-09T17:56:44.166Z,81
2023-06-09T18:01:50.284Z,80.5
2023-06-09T18:06:56.382Z,80
2023-06-09T18:12:02.460Z,82
2023-06-09T18:17:08.609Z,81.5
2023-06-09T18:22:14.801Z,83
2023-06-09T18:27:20.751Z,81
2023-06-09T18:32:27.602Z,82.5
2023-06-09T18:37:33.214Z,83.5
2023-06-09T18:42:40.527Z,82.5
2023-06-09T18:47:45.415Z,83
2023-06-09T18:52:51.416Z,83.5
2023-06-09T18:58:08.582Z,85
2023-06-09T19:03:14.718Z,86.5
2023-06-09T19:08:20.718Z,83.5
2023-06-09T19:13:27.191Z,84.5
2023-06-09T19:18:32.913Z,86.5
2023-06-09T19:23:39.271Z,85.5
2023-06-09T19:28:45.110Z,86
2023-06-09T19:33:51.204Z,88
2023-06-09T19:38:57.309Z,88.5
2023-06-09T19:44:03.614Z,88
2023-06-09T19:49:09.518Z,90
2023-06-09T19:54:15.780Z,89.5
2023-06-09T19:59:21.831Z,89.5
2023-06-09T20:04:27.965Z,90.5
2023-06-09T20:09:33.885Z,92
2023-06-09T20:14:39.979Z,92
2023-06-09T20:19:46.105Z,92
2023-06-09T20:24:52.185Z,92
2023-06-09T20:29:58.242Z,91
2023-06-09T20:35:15.683Z,91.5
2023-06-09T20:40:21.857Z,91.5
2023-06-09T20:45:27.913Z,91.5
2023-06-09T20:50:34.305Z,91.5
2023-06-09T20:55:40.169Z,91
2023-06-09T21:00:46.507Z,91.5
2023-06-09T21:05:52.216Z,92
2023-06-09T21:10:59.028Z,91.5
2023-06-09T21:16:04.502Z,92
2023-06-09T21:21:10.546Z,91.5
2023-06-09T21:26:16.715Z,91
2023-06-09T21:31:23.157Z,91.5
2023-06-09T21:36:28.873Z,91.5
2023-06-09T21:41:35.295Z,92
2023-06-09T21:46:41.016Z,92.5
2023-06-09T21:51:46.993Z,93
2023-06-09T21:56:53.081Z,93
2023-06-09T22:01:59.158Z,92.5
2023-06-09T22:07:05.274Z,92
2023-06-09T22:12:18.216Z,93
2023-06-09T22:17:23.116Z,92.5
2023-06-09T22:22:29.215Z,93
2023-06-09T22:27:35.293Z,91.5
2023-06-09T22:32:41.424Z,92
2023-06-09T22:37:47.477Z,92
2023-06-09T22:42:53.572Z,93
2023-06-09T22:47:59.929Z,92
2023-06-09T22:53:05.772Z,91
2023-06-09T22:58:12.091Z,91.5
2023-06-09T23:03:17.966Z,91.5
2023-06-09T23:08:24.211Z,92
2023-06-09T23:13:30.163Z,91.5
2023-06-09T23:18:36.228Z,91.5
2023-06-09T23:23:42.369Z,92
2023-06-09T23:28:48.457Z,91.5
2023-06-09T23:33:54.518Z,91.5
2023-06-09T23:39:01.631Z,93.5
2023-06-09T23:44:06.736Z,93
2023-06-09T23:49:29.632Z,93
2023-06-09T23:54:35.687Z,94
2023-06-09T23:59:41.925Z,93.5
